sensor_id;sensor_type;location;lat;lon;timestamp;P1;durP1;ratioP1;P2;durP2;ratioP2
15858;SDS011;8029;52.202;7.308;2022-11-20T00:01:45;4.20;;;3.83;;
15858;SDS011;8029;52.202;7.308;2022-11-20T00:04:11;4.20;;;3.80;;
15858;SDS011;8029;52.202;7.308;2022-11-20T00:06:37;7.73;;;5.07;;
15858;SDS011;8029;52.202;7.308;2022-11-20T00:09:03;4.90;;;4.50;;
15858;SDS011;8029;52.202;7.308;2022-11-20T00:11:30;4.37;;;3.97;;
15858;SDS011;8029;52.202;7.308;2022-11-20T00:13:57;4.50;;;4.10;;
15858;SDS011;8029;52.202;7.308;2022-11-20T00:16:24;6.93;;;6.27;;
15858;SDS011;8029;52.202;7.308;2022-11-20T00:18:50;7.30;;;6.23;;
15858;SDS011;8029;52.202;7.308;2022-11-20T00:21:18;6.23;;;5.63;;
15858;SDS011;8029;52.202;7.308;2022-11-20T00:23:44;7.43;;;6.73;;
15858;SDS011;8029;52.202;7.308;2022-11-20T00:26:12;10.53;;;6.57;;
15858;SDS011;8029;52.202;7.308;2022-11-20T00:28:38;7.83;;;6.17;;
15858;SDS011;8029;52.202;7.308;2022-11-20T00:31:05;9.00;;;6.77;;
15858;SDS011;8029;52.202;7.308;2022-11-20T00:33:32;7.33;;;6.20;;
15858;SDS011;8029;52.202;7.308;2022-11-20T00:36:02;6.43;;;5.83;;
15858;SDS011;8029;52.202;7.308;2022-11-20T00:38:29;6.63;;;6.00;;
15858;SDS011;8029;52.202;7.308;2022-11-20T00:40:58;6.90;;;6.23;;
15858;SDS011;8029;52.202;7.308;2022-11-20T00:43:26;6.03;;;5.50;;
15858;SDS011;8029;52.202;7.308;2022-11-20T00:46:02;8.40;;;5.77;;
15858;SDS011;8029;52.202;7.308;2022-11-20T00:48:28;8.67;;;6.90;;
15858;SDS011;8029;52.202;7.308;2022-11-20T00:50:54;9.13;;;6.67;;
15858;SDS011;8029;52.202;7.308;2022-11-20T00:53:20;7.53;;;6.73;;
15858;SDS011;8029;52.202;7.308;2022-11-20T00:55:54;8.43;;;6.97;;
15858;SDS011;8029;52.202;7.308;2022-11-20T00:58:20;7.30;;;6.53;;
15858;SDS011;8029;52.202;7.308;2022-11-20T01:00:46;8.97;;;7.87;;
15858;SDS011;8029;52.202;7.308;2022-11-20T01:03:12;7.70;;;6.53;;
15858;SDS011;8029;52.202;7.308;2022-11-20T01:05:38;8.13;;;7.23;;
15858;SDS011;8029;52.202;7.308;2022-11-20T01:08:04;7.67;;;6.87;;
15858;SDS011;8029;52.202;7.308;2022-11-20T01:10:30;6.57;;;5.90;;
15858;SDS011;8029;52.202;7.308;2022-11-20T01:12:56;8.90;;;6.70;;
15858;SDS011;8029;52.202;7.308;2022-11-20T01:15:41;6.77;;;6.07;;
15858;SDS011;8029;52.202;7.308;2022-11-20T01:18:07;9.93;;;6.73;;
15858;SDS011;8029;52.202;7.308;2022-11-20T01:20:36;6.70;;;5.77;;
15858;SDS011;8029;52.202;7.308;2022-11-20T01:23:02;7.63;;;5.90;;
15858;SDS011;8029;52.202;7.308;2022-11-20T01:25:29;8.63;;;7.20;;
15858;SDS011;8029;52.202;7.308;2022-11-20T01:27:55;4.47;;;4.07;;
15858;SDS011;8029;52.202;7.308;2022-11-20T01:30:20;7.80;;;7.00;;
15858;SDS011;8029;52.202;7.308;2022-11-20T01:32:46;8.67;;;7.03;;
15858;SDS011;8029;52.202;7.308;2022-11-20T01:35:12;6.03;;;5.53;;
15858;SDS011;8029;52.202;7.308;2022-11-20T01:37:38;9.87;;;6.63;;
15858;SDS011;8029;52.202;7.308;2022-11-20T01:40:04;7.17;;;5.53;;
15858;SDS011;8029;52.202;7.308;2022-11-20T01:42:31;6.43;;;5.83;;
15858;SDS011;8029;52.202;7.308;2022-11-20T01:48:00;8.03;;;6.03;;
15858;SDS011;8029;52.202;7.308;2022-11-20T01:50:26;8.33;;;7.47;;
15858;SDS011;8029;52.202;7.308;2022-11-20T01:53:00;5.87;;;5.23;;
15858;SDS011;8029;52.202;7.308;2022-11-20T01:55:28;9.63;;;5.77;;
15858;SDS011;8029;52.202;7.308;2022-11-20T01:57:55;8.43;;;6.27;;
15858;SDS011;8029;52.202;7.308;2022-11-20T02:00:21;4.47;;;4.10;;
15858;SDS011;8029;52.202;7.308;2022-11-20T02:02:52;7.80;;;4.93;;
15858;SDS011;8029;52.202;7.308;2022-11-20T02:05:22;8.73;;;6.67;;
15858;SDS011;8029;52.202;7.308;2022-11-20T02:07:49;6.27;;;5.43;;
15858;SDS011;8029;52.202;7.308;2022-11-20T02:10:15;5.73;;;5.23;;
15858;SDS011;8029;52.202;7.308;2022-11-20T02:12:41;5.67;;;5.10;;
15858;SDS011;8029;52.202;7.308;2022-11-20T02:15:26;4.03;;;3.63;;
15858;SDS011;8029;52.202;7.308;2022-11-20T02:17:52;8.20;;;6.17;;
15858;SDS011;8029;52.202;7.308;2022-11-20T02:20:18;4.60;;;4.13;;
15858;SDS011;8029;52.202;7.308;2022-11-20T02:22:54;7.33;;;4.80;;
15858;SDS011;8029;52.202;7.308;2022-11-20T02:25:21;5.77;;;5.20;;
15858;SDS011;8029;52.202;7.308;2022-11-20T02:27:50;5.37;;;4.57;;
15858;SDS011;8029;52.202;7.308;2022-11-20T02:30:16;5.80;;;4.87;;
15858;SDS011;8029;52.202;7.308;2022-11-20T02:32:43;3.83;;;3.53;;
15858;SDS011;8029;52.202;7.308;2022-11-20T02:35:09;5.33;;;4.47;;
15858;SDS011;8029;52.202;7.308;2022-11-20T02:37:37;6.03;;;5.43;;
15858;SDS011;8029;52.202;7.308;2022-11-20T02:40:05;5.10;;;4.60;;
15858;SDS011;8029;52.202;7.308;2022-11-20T02:42:31;4.93;;;4.47;;
15858;SDS011;8029;52.202;7.308;2022-11-20T02:44:57;5.40;;;4.70;;
15858;SDS011;8029;52.202;7.308;2022-11-20T02:47:23;5.23;;;4.73;;
15858;SDS011;8029;52.202;7.308;2022-11-20T02:49:49;4.63;;;4.20;;
15858;SDS011;8029;52.202;7.308;2022-11-20T02:52:16;5.70;;;4.77;;
15858;SDS011;8029;52.202;7.308;2022-11-20T02:54:42;5.63;;;4.93;;
15858;SDS011;8029;52.202;7.308;2022-11-20T02:57:07;4.57;;;4.17;;
15858;SDS011;8029;52.202;7.308;2022-11-20T02:59:33;6.57;;;5.00;;
15858;SDS011;8029;52.202;7.308;2022-11-20T03:01:59;7.27;;;5.60;;
15858;SDS011;8029;52.202;7.308;2022-11-20T03:04:25;6.60;;;4.47;;
15858;SDS011;8029;52.202;7.308;2022-11-20T03:06:52;5.47;;;4.97;;
15858;SDS011;8029;52.202;7.308;2022-11-20T03:09:18;5.47;;;4.97;;
15858;SDS011;8029;52.202;7.308;2022-11-20T03:11:44;5.63;;;5.13;;
15858;SDS011;8029;52.202;7.308;2022-11-20T03:14:10;5.70;;;5.03;;
15858;SDS011;8029;52.202;7.308;2022-11-20T03:16:36;5.00;;;4.50;;
15858;SDS011;8029;52.202;7.308;2022-11-20T03:19:02;7.13;;;5.73;;
15858;SDS011;8029;52.202;7.308;2022-11-20T03:21:28;7.57;;;4.60;;
15858;SDS011;8029;52.202;7.308;2022-11-20T03:23:55;4.93;;;4.53;;
15858;SDS011;8029;52.202;7.308;2022-11-20T03:26:22;6.53;;;4.97;;
15858;SDS011;8029;52.202;7.308;2022-11-20T03:28:50;5.53;;;4.93;;
15858;SDS011;8029;52.202;7.308;2022-11-20T03:31:16;4.50;;;3.80;;
15858;SDS011;8029;52.202;7.308;2022-11-20T03:33:43;5.73;;;4.47;;
15858;SDS011;8029;52.202;7.308;2022-11-20T03:36:10;6.93;;;5.73;;
15858;SDS011;8029;52.202;7.308;2022-11-20T03:38:37;5.90;;;5.40;;
15858;SDS011;8029;52.202;7.308;2022-11-20T03:41:07;6.77;;;5.60;;
15858;SDS011;8029;52.202;7.308;2022-11-20T03:43:34;9.67;;;6.27;;
15858;SDS011;8029;52.202;7.308;2022-11-20T03:46:00;11.30;;;6.87;;
15858;SDS011;8029;52.202;7.308;2022-11-20T03:48:26;8.70;;;7.77;;
15858;SDS011;8029;52.202;7.308;2022-11-20T03:50:53;8.47;;;6.93;;
15858;SDS011;8029;52.202;7.308;2022-11-20T03:53:19;7.07;;;6.33;;
15858;SDS011;8029;52.202;7.308;2022-11-20T03:55:50;10.70;;;7.03;;
15858;SDS011;8029;52.202;7.308;2022-11-20T03:58:16;11.73;;;6.40;;
15858;SDS011;8029;52.202;7.308;2022-11-20T04:00:43;8.20;;;6.10;;
15858;SDS011;8029;52.202;7.308;2022-11-20T04:03:08;7.80;;;6.63;;
15858;SDS011;8029;52.202;7.308;2022-11-20T04:05:34;5.97;;;5.37;;
15858;SDS011;8029;52.202;7.308;2022-11-20T04:08:00;5.80;;;5.20;;
15858;SDS011;8029;52.202;7.308;2022-11-20T04:10:26;7.90;;;6.07;;
15858;SDS011;8029;52.202;7.308;2022-11-20T04:12:52;12.40;;;6.90;;
15858;SDS011;8029;52.202;7.308;2022-11-20T04:15:18;7.13;;;5.97;;
15858;SDS011;8029;52.202;7.308;2022-11-20T04:17:44;7.40;;;5.37;;
15858;SDS011;8029;52.202;7.308;2022-11-20T04:20:10;11.70;;;5.43;;
15858;SDS011;8029;52.202;7.308;2022-11-20T04:22:36;5.23;;;4.80;;
15858;SDS011;8029;52.202;7.308;2022-11-20T04:25:02;7.03;;;6.33;;
15858;SDS011;8029;52.202;7.308;2022-11-20T04:27:29;5.03;;;4.60;;
15858;SDS011;8029;52.202;7.308;2022-11-20T04:29:56;6.57;;;5.97;;
15858;SDS011;8029;52.202;7.308;2022-11-20T04:32:22;6.30;;;5.50;;
15858;SDS011;8029;52.202;7.308;2022-11-20T04:34:48;6.33;;;5.50;;
15858;SDS011;8029;52.202;7.308;2022-11-20T04:37:14;6.40;;;5.80;;
15858;SDS011;8029;52.202;7.308;2022-11-20T04:39:40;11.27;;;7.13;;
15858;SDS011;8029;52.202;7.308;2022-11-20T04:42:07;5.53;;;4.97;;
15858;SDS011;8029;52.202;7.308;2022-11-20T04:44:52;6.27;;;5.63;;
15858;SDS011;8029;52.202;7.308;2022-11-20T04:47:18;5.03;;;4.57;;
15858;SDS011;8029;52.202;7.308;2022-11-20T04:49:44;6.47;;;5.83;;
15858;SDS011;8029;52.202;7.308;2022-11-20T04:52:10;7.33;;;6.00;;
15858;SDS011;8029;52.202;7.308;2022-11-20T04:54:36;5.83;;;5.20;;
15858;SDS011;8029;52.202;7.308;2022-11-20T04:57:02;6.97;;;6.27;;
15858;SDS011;8029;52.202;7.308;2022-11-20T04:59:28;6.73;;;5.90;;
15858;SDS011;8029;52.202;7.308;2022-11-20T05:01:54;8.70;;;6.53;;
15858;SDS011;8029;52.202;7.308;2022-11-20T05:04:20;7.97;;;5.63;;
15858;SDS011;8029;52.202;7.308;2022-11-20T05:06:46;9.73;;;6.87;;
15858;SDS011;8029;52.202;7.308;2022-11-20T05:09:12;6.07;;;5.47;;
15858;SDS011;8029;52.202;7.308;2022-11-20T05:11:38;5.53;;;5.03;;
15858;SDS011;8029;52.202;7.308;2022-11-20T05:14:04;5.73;;;5.23;;
15858;SDS011;8029;52.202;7.308;2022-11-20T05:16:30;8.53;;;7.23;;
15858;SDS011;8029;52.202;7.308;2022-11-20T05:18:56;8.97;;;6.43;;
15858;SDS011;8029;52.202;7.308;2022-11-20T05:21:23;7.07;;;5.93;;
15858;SDS011;8029;52.202;7.308;2022-11-20T05:23:49;4.83;;;4.43;;
15858;SDS011;8029;52.202;7.308;2022-11-20T05:26:16;7.67;;;5.10;;
15858;SDS011;8029;52.202;7.308;2022-11-20T05:28:42;7.10;;;5.63;;
15858;SDS011;8029;52.202;7.308;2022-11-20T05:31:09;10.73;;;6.80;;
15858;SDS011;8029;52.202;7.308;2022-11-20T05:33:36;9.53;;;5.67;;
15858;SDS011;8029;52.202;7.308;2022-11-20T05:36:02;8.97;;;6.53;;
15858;SDS011;8029;52.202;7.308;2022-11-20T05:38:29;8.10;;;6.17;;
15858;SDS011;8029;52.202;7.308;2022-11-20T05:41:02;7.57;;;6.70;;
15858;SDS011;8029;52.202;7.308;2022-11-20T05:43:28;5.97;;;5.37;;
15858;SDS011;8029;52.202;7.308;2022-11-20T05:45:55;8.33;;;6.37;;
15858;SDS011;8029;52.202;7.308;2022-11-20T05:48:21;8.10;;;5.50;;
15858;SDS011;8029;52.202;7.308;2022-11-20T05:50:47;5.57;;;4.63;;
15858;SDS011;8029;52.202;7.308;2022-11-20T05:53:13;5.63;;;5.03;;
15858;SDS011;8029;52.202;7.308;2022-11-20T05:55:40;4.83;;;4.37;;
15858;SDS011;8029;52.202;7.308;2022-11-20T05:58:06;6.43;;;5.63;;
15858;SDS011;8029;52.202;7.308;2022-11-20T06:00:32;5.37;;;4.83;;
15858;SDS011;8029;52.202;7.308;2022-11-20T06:02:58;6.13;;;5.23;;
15858;SDS011;8029;52.202;7.308;2022-11-20T06:05:24;4.77;;;4.27;;
15858;SDS011;8029;52.202;7.308;2022-11-20T06:07:50;7.23;;;6.07;;
15858;SDS011;8029;52.202;7.308;2022-11-20T06:10:16;8.30;;;4.93;;
15858;SDS011;8029;52.202;7.308;2022-11-20T06:12:42;5.43;;;4.93;;
15858;SDS011;8029;52.202;7.308;2022-11-20T06:15:08;5.23;;;3.87;;
15858;SDS011;8029;52.202;7.308;2022-11-20T06:17:34;8.90;;;6.03;;
15858;SDS011;8029;52.202;7.308;2022-11-20T06:20:00;5.70;;;5.20;;
15858;SDS011;8029;52.202;7.308;2022-11-20T06:22:26;5.20;;;4.70;;
15858;SDS011;8029;52.202;7.308;2022-11-20T06:24:52;5.33;;;4.83;;
15858;SDS011;8029;52.202;7.308;2022-11-20T06:27:18;10.53;;;6.03;;
15858;SDS011;8029;52.202;7.308;2022-11-20T06:29:44;5.57;;;5.07;;
15858;SDS011;8029;52.202;7.308;2022-11-20T06:32:10;6.27;;;4.57;;
15858;SDS011;8029;52.202;7.308;2022-11-20T06:34:36;5.63;;;4.83;;
15858;SDS011;8029;52.202;7.308;2022-11-20T06:37:02;8.23;;;5.67;;
15858;SDS011;8029;52.202;7.308;2022-11-20T06:39:28;13.50;;;4.73;;
15858;SDS011;8029;52.202;7.308;2022-11-20T06:41:53;10.37;;;6.70;;
15858;SDS011;8029;52.202;7.308;2022-11-20T06:44:19;5.87;;;5.20;;
15858;SDS011;8029;52.202;7.308;2022-11-20T06:46:45;6.40;;;5.27;;
15858;SDS011;8029;52.202;7.308;2022-11-20T06:49:11;9.23;;;5.53;;
15858;SDS011;8029;52.202;7.308;2022-11-20T06:51:37;8.27;;;5.70;;
15858;SDS011;8029;52.202;7.308;2022-11-20T06:54:03;6.17;;;5.57;;
15858;SDS011;8029;52.202;7.308;2022-11-20T06:56:29;5.37;;;4.87;;
15858;SDS011;8029;52.202;7.308;2022-11-20T06:58:55;5.97;;;4.07;;
15858;SDS011;8029;52.202;7.308;2022-11-20T07:01:21;4.83;;;4.43;;
15858;SDS011;8029;52.202;7.308;2022-11-20T07:03:48;5.67;;;5.03;;
15858;SDS011;8029;52.202;7.308;2022-11-20T07:06:15;5.47;;;4.37;;
15858;SDS011;8029;52.202;7.308;2022-11-20T07:08:43;4.77;;;4.37;;
15858;SDS011;8029;52.202;7.308;2022-11-20T07:11:12;8.93;;;6.67;;
15858;SDS011;8029;52.202;7.308;2022-11-20T07:13:38;7.00;;;6.03;;
15858;SDS011;8029;52.202;7.308;2022-11-20T07:16:09;7.13;;;5.87;;
15858;SDS011;8029;52.202;7.308;2022-11-20T07:18:35;7.30;;;6.60;;
15858;SDS011;8029;52.202;7.308;2022-11-20T07:21:02;6.37;;;5.30;;
15858;SDS011;8029;52.202;7.308;2022-11-20T07:23:28;5.97;;;5.17;;
15858;SDS011;8029;52.202;7.308;2022-11-20T07:25:54;5.87;;;5.30;;
15858;SDS011;8029;52.202;7.308;2022-11-20T07:28:20;5.10;;;4.63;;
15858;SDS011;8029;52.202;7.308;2022-11-20T07:30:49;6.40;;;5.57;;
15858;SDS011;8029;52.202;7.308;2022-11-20T07:33:15;5.93;;;4.87;;
15858;SDS011;8029;52.202;7.308;2022-11-20T07:35:41;5.57;;;5.00;;
15858;SDS011;8029;52.202;7.308;2022-11-20T07:38:07;7.40;;;6.47;;
15858;SDS011;8029;52.202;7.308;2022-11-20T07:40:33;7.33;;;5.47;;
15858;SDS011;8029;52.202;7.308;2022-11-20T07:42:59;5.63;;;5.13;;
15858;SDS011;8029;52.202;7.308;2022-11-20T07:45:25;7.27;;;5.67;;
15858;SDS011;8029;52.202;7.308;2022-11-20T07:47:51;6.57;;;5.90;;
15858;SDS011;8029;52.202;7.308;2022-11-20T07:50:17;6.43;;;5.80;;
15858;SDS011;8029;52.202;7.308;2022-11-20T07:52:43;6.37;;;5.77;;
15858;SDS011;8029;52.202;7.308;2022-11-20T07:55:09;8.90;;;6.43;;
15858;SDS011;8029;52.202;7.308;2022-11-20T07:57:36;6.10;;;5.37;;
15858;SDS011;8029;52.202;7.308;2022-11-20T08:00:03;6.17;;;5.40;;
15858;SDS011;8029;52.202;7.308;2022-11-20T08:02:29;5.63;;;5.13;;
15858;SDS011;8029;52.202;7.308;2022-11-20T08:04:55;8.27;;;6.60;;
15858;SDS011;8029;52.202;7.308;2022-11-20T08:07:21;9.07;;;7.03;;
15858;SDS011;8029;52.202;7.308;2022-11-20T08:09:47;10.47;;;7.37;;
15858;SDS011;8029;52.202;7.308;2022-11-20T08:12:17;10.33;;;8.30;;
15858;SDS011;8029;52.202;7.308;2022-11-20T08:15:03;8.67;;;6.60;;
15858;SDS011;8029;52.202;7.308;2022-11-20T08:17:29;6.80;;;6.10;;
15858;SDS011;8029;52.202;7.308;2022-11-20T08:19:55;6.30;;;5.80;;
15858;SDS011;8029;52.202;7.308;2022-11-20T08:22:21;9.27;;;7.10;;
15858;SDS011;8029;52.202;7.308;2022-11-20T08:24:47;8.30;;;7.07;;
15858;SDS011;8029;52.202;7.308;2022-11-20T08:27:13;13.10;;;8.40;;
15858;SDS011;8029;52.202;7.308;2022-11-20T08:29:39;6.17;;;5.37;;
15858;SDS011;8029;52.202;7.308;2022-11-20T08:32:05;6.47;;;5.87;;
15858;SDS011;8029;52.202;7.308;2022-11-20T08:34:31;7.83;;;7.00;;
15858;SDS011;8029;52.202;7.308;2022-11-20T08:36:57;5.73;;;5.13;;
15858;SDS011;8029;52.202;7.308;2022-11-20T08:39:23;5.37;;;4.87;;
15858;SDS011;8029;52.202;7.308;2022-11-20T08:41:49;6.60;;;5.73;;
15858;SDS011;8029;52.202;7.308;2022-11-20T08:44:15;6.43;;;5.83;;
15858;SDS011;8029;52.202;7.308;2022-11-20T08:46:42;10.83;;;9.27;;
15858;SDS011;8029;52.202;7.308;2022-11-20T08:49:12;6.47;;;5.87;;
15858;SDS011;8029;52.202;7.308;2022-11-20T08:51:39;10.60;;;8.17;;
15858;SDS011;8029;52.202;7.308;2022-11-20T08:54:06;7.63;;;6.83;;
15858;SDS011;8029;52.202;7.308;2022-11-20T08:56:33;8.73;;;7.37;;
15858;SDS011;8029;52.202;7.308;2022-11-20T08:58:59;7.90;;;6.80;;
15858;SDS011;8029;52.202;7.308;2022-11-20T09:01:25;7.13;;;6.43;;
15858;SDS011;8029;52.202;7.308;2022-11-20T09:03:51;6.43;;;5.83;;
15858;SDS011;8029;52.202;7.308;2022-11-20T09:06:17;8.30;;;7.47;;
15858;SDS011;8029;52.202;7.308;2022-11-20T09:08:43;11.40;;;7.43;;
15858;SDS011;8029;52.202;7.308;2022-11-20T09:11:09;9.17;;;7.70;;
15858;SDS011;8029;52.202;7.308;2022-11-20T09:13:35;10.43;;;8.00;;
15858;SDS011;8029;52.202;7.308;2022-11-20T09:16:05;7.97;;;6.67;;
15858;SDS011;8029;52.202;7.308;2022-11-20T09:18:32;7.93;;;6.70;;
15858;SDS011;8029;52.202;7.308;2022-11-20T09:21:01;7.67;;;6.63;;
15858;SDS011;8029;52.202;7.308;2022-11-20T09:23:30;6.70;;;6.10;;
15858;SDS011;8029;52.202;7.308;2022-11-20T09:25:56;10.17;;;7.77;;
15858;SDS011;8029;52.202;7.308;2022-11-20T09:28:24;7.73;;;6.93;;
15858;SDS011;8029;52.202;7.308;2022-11-20T09:30:50;9.43;;;8.10;;
15858;SDS011;8029;52.202;7.308;2022-11-20T09:33:16;8.40;;;7.57;;
15858;SDS011;8029;52.202;7.308;2022-11-20T09:35:43;9.20;;;7.70;;
15858;SDS011;8029;52.202;7.308;2022-11-20T09:38:09;8.73;;;7.83;;
15858;SDS011;8029;52.202;7.308;2022-11-20T09:40:36;8.63;;;7.83;;
15858;SDS011;8029;52.202;7.308;2022-11-20T09:43:07;8.10;;;7.10;;
15858;SDS011;8029;52.202;7.308;2022-11-20T09:45:48;9.43;;;8.37;;
15858;SDS011;8029;52.202;7.308;2022-11-20T09:51:01;11.17;;;8.37;;
15858;SDS011;8029;52.202;7.308;2022-11-20T09:56:13;8.07;;;6.80;;
15858;SDS011;8029;52.202;7.308;2022-11-20T09:58:44;8.57;;;7.10;;
15858;SDS011;8029;52.202;7.308;2022-11-20T10:01:12;11.17;;;9.03;;
15858;SDS011;8029;52.202;7.308;2022-11-20T10:06:10;12.67;;;7.40;;
15858;SDS011;8029;52.202;7.308;2022-11-20T10:18:43;8.93;;;7.17;;
15858;SDS011;8029;52.202;7.308;2022-11-20T10:26:22;7.87;;;6.37;;
15858;SDS011;8029;52.202;7.308;2022-11-20T10:31:17;7.60;;;6.80;;
15858;SDS011;8029;52.202;7.308;2022-11-20T10:33:49;9.30;;;8.30;;
15858;SDS011;8029;52.202;7.308;2022-11-20T10:36:26;10.47;;;7.10;;
15858;SDS011;8029;52.202;7.308;2022-11-20T10:38:57;9.37;;;8.07;;
15858;SDS011;8029;52.202;7.308;2022-11-20T10:41:58;8.13;;;7.30;;
15858;SDS011;8029;52.202;7.308;2022-11-20T10:44:19;7.60;;;6.90;;
15858;SDS011;8029;52.202;7.308;2022-11-20T10:47:05;11.87;;;9.30;;
15858;SDS011;8029;52.202;7.308;2022-11-20T10:49:32;8.50;;;7.27;;
15858;SDS011;8029;52.202;7.308;2022-11-20T10:52:11;7.40;;;5.87;;
15858;SDS011;8029;52.202;7.308;2022-11-20T11:00:11;9.87;;;8.87;;
15858;SDS011;8029;52.202;7.308;2022-11-20T11:02:42;7.27;;;6.53;;
15858;SDS011;8029;52.202;7.308;2022-11-20T11:05:14;15.17;;;8.03;;
15858;SDS011;8029;52.202;7.308;2022-11-20T11:07:43;8.43;;;7.27;;
15858;SDS011;8029;52.202;7.308;2022-11-20T11:10:14;13.47;;;8.20;;
15858;SDS011;8029;52.202;7.308;2022-11-20T11:12:43;9.60;;;8.60;;
15858;SDS011;8029;52.202;7.308;2022-11-20T11:15:14;9.50;;;8.23;;
15858;SDS011;8029;52.202;7.308;2022-11-20T11:17:46;17.00;;;8.13;;
15858;SDS011;8029;52.202;7.308;2022-11-20T11:20:17;12.00;;;9.83;;
15858;SDS011;8029;52.202;7.308;2022-11-20T11:22:47;11.37;;;9.00;;
15858;SDS011;8029;52.202;7.308;2022-11-20T11:25:30;15.93;;;10.30;;
15858;SDS011;8029;52.202;7.308;2022-11-20T11:27:59;11.97;;;9.20;;
15858;SDS011;8029;52.202;7.308;2022-11-20T11:30:26;11.43;;;10.03;;
15858;SDS011;8029;52.202;7.308;2022-11-20T11:33:06;16.87;;;11.73;;
15858;SDS011;8029;52.202;7.308;2022-11-20T11:35:32;12.20;;;9.13;;
15858;SDS011;8029;52.202;7.308;2022-11-20T11:38:03;13.53;;;10.27;;
15858;SDS011;8029;52.202;7.308;2022-11-20T11:40:31;11.17;;;8.77;;
15858;SDS011;8029;52.202;7.308;2022-11-20T11:42:57;10.17;;;8.47;;
15858;SDS011;8029;52.202;7.308;2022-11-20T11:45:24;25.33;;;9.47;;
15858;SDS011;8029;52.202;7.308;2022-11-20T11:47:51;13.70;;;9.87;;
15858;SDS011;8029;52.202;7.308;2022-11-20T11:50:22;10.17;;;8.60;;
15858;SDS011;8029;52.202;7.308;2022-11-20T11:55:17;11.90;;;8.83;;
15858;SDS011;8029;52.202;7.308;2022-11-20T11:57:47;10.83;;;9.00;;
15858;SDS011;8029;52.202;7.308;2022-11-20T12:00:16;11.27;;;9.97;;
15858;SDS011;8029;52.202;7.308;2022-11-20T12:07:40;12.17;;;10.40;;
15858;SDS011;8029;52.202;7.308;2022-11-20T12:10:23;12.13;;;9.00;;
15858;SDS011;8029;52.202;7.308;2022-11-20T12:12:54;9.27;;;6.97;;
15858;SDS011;8029;52.202;7.308;2022-11-20T12:15:31;7.27;;;6.30;;
15858;SDS011;8029;52.202;7.308;2022-11-20T12:17:58;8.23;;;7.20;;
15858;SDS011;8029;52.202;7.308;2022-11-20T12:20:27;15.60;;;5.37;;
15858;SDS011;8029;52.202;7.308;2022-11-20T12:25:31;10.90;;;7.60;;
15858;SDS011;8029;52.202;7.308;2022-11-20T12:28:12;11.70;;;5.17;;
15858;SDS011;8029;52.202;7.308;2022-11-20T12:31:30;4.43;;;4.03;;
15858;SDS011;8029;52.202;7.308;2022-11-20T12:33:34;5.93;;;5.33;;
15858;SDS011;8029;52.202;7.308;2022-11-20T12:43:42;2.93;;;2.50;;
15858;SDS011;8029;52.202;7.308;2022-11-20T12:54:00;2.47;;;2.27;;
15858;SDS011;8029;52.202;7.308;2022-11-20T13:02:01;4.80;;;3.37;;
15858;SDS011;8029;52.202;7.308;2022-11-20T13:07:03;3.53;;;3.20;;
15858;SDS011;8029;52.202;7.308;2022-11-20T13:09:30;4.37;;;3.53;;
15858;SDS011;8029;52.202;7.308;2022-11-20T13:17:24;2.63;;;2.40;;
15858;SDS011;8029;52.202;7.308;2022-11-20T13:19:56;3.80;;;3.47;;
15858;SDS011;8029;52.202;7.308;2022-11-20T13:24:52;9.23;;;7.37;;
15858;SDS011;8029;52.202;7.308;2022-11-20T13:27:19;5.37;;;4.17;;
15858;SDS011;8029;52.202;7.308;2022-11-20T13:30:32;4.97;;;4.07;;
15858;SDS011;8029;52.202;7.308;2022-11-20T13:32:32;5.90;;;4.37;;
15858;SDS011;8029;52.202;7.308;2022-11-20T13:35:00;5.67;;;4.80;;
15858;SDS011;8029;52.202;7.308;2022-11-20T13:42:44;5.00;;;4.53;;
15858;SDS011;8029;52.202;7.308;2022-11-20T13:45:30;6.33;;;5.13;;
15858;SDS011;8029;52.202;7.308;2022-11-20T13:47:56;6.23;;;5.37;;
15858;SDS011;8029;52.202;7.308;2022-11-20T13:50:38;5.57;;;4.97;;
15858;SDS011;8029;52.202;7.308;2022-11-20T13:53:53;5.47;;;4.77;;
15858;SDS011;8029;52.202;7.308;2022-11-20T13:55:54;8.83;;;6.03;;
15858;SDS011;8029;52.202;7.308;2022-11-20T14:03:42;8.27;;;6.43;;
15858;SDS011;8029;52.202;7.308;2022-11-20T14:06:12;8.20;;;5.10;;
15858;SDS011;8029;52.202;7.308;2022-11-20T14:08:40;7.23;;;4.93;;
15858;SDS011;8029;52.202;7.308;2022-11-20T14:16:29;6.37;;;5.73;;
15858;SDS011;8029;52.202;7.308;2022-11-20T14:18:55;6.13;;;5.13;;
15858;SDS011;8029;52.202;7.308;2022-11-20T14:21:28;8.87;;;5.87;;
15858;SDS011;8029;52.202;7.308;2022-11-20T14:26:29;17.80;;;6.20;;
15858;SDS011;8029;52.202;7.308;2022-11-20T14:28:56;12.83;;;6.57;;
15858;SDS011;8029;52.202;7.308;2022-11-20T14:31:25;7.70;;;5.83;;
15858;SDS011;8029;52.202;7.308;2022-11-20T14:33:52;6.47;;;5.77;;
15858;SDS011;8029;52.202;7.308;2022-11-20T14:36:20;7.93;;;5.57;;
15858;SDS011;8029;52.202;7.308;2022-11-20T14:38:46;8.53;;;7.17;;
15858;SDS011;8029;52.202;7.308;2022-11-20T14:41:17;7.03;;;6.07;;
15858;SDS011;8029;52.202;7.308;2022-11-20T14:43:47;10.10;;;6.47;;
15858;SDS011;8029;52.202;7.308;2022-11-20T14:46:15;6.07;;;5.37;;
15858;SDS011;8029;52.202;7.308;2022-11-20T14:48:51;14.20;;;7.00;;
15858;SDS011;8029;52.202;7.308;2022-11-20T14:53:50;9.87;;;7.27;;
15858;SDS011;8029;52.202;7.308;2022-11-20T14:56:20;9.07;;;7.60;;
15858;SDS011;8029;52.202;7.308;2022-11-20T14:58:55;8.17;;;6.73;;
15858;SDS011;8029;52.202;7.308;2022-11-20T15:01:25;6.50;;;5.90;;
15858;SDS011;8029;52.202;7.308;2022-11-20T15:03:57;8.27;;;7.33;;
15858;SDS011;8029;52.202;7.308;2022-11-20T15:06:27;8.00;;;6.87;;
15858;SDS011;8029;52.202;7.308;2022-11-20T15:08:54;6.70;;;6.00;;
15858;SDS011;8029;52.202;7.308;2022-11-20T15:11:22;8.90;;;6.67;;
15858;SDS011;8029;52.202;7.308;2022-11-20T15:13:49;8.07;;;6.77;;
15858;SDS011;8029;52.202;7.308;2022-11-20T15:16:19;9.53;;;7.63;;
15858;SDS011;8029;52.202;7.308;2022-11-20T15:18:45;11.63;;;8.20;;
15858;SDS011;8029;52.202;7.308;2022-11-20T15:21:13;8.40;;;6.90;;
15858;SDS011;8029;52.202;7.308;2022-11-20T15:23:39;6.70;;;6.00;;
15858;SDS011;8029;52.202;7.308;2022-11-20T15:26:06;8.53;;;6.87;;
15858;SDS011;8029;52.202;7.308;2022-11-20T15:30:58;7.97;;;7.13;;
15858;SDS011;8029;52.202;7.308;2022-11-20T15:33:24;11.90;;;7.23;;
15858;SDS011;8029;52.202;7.308;2022-11-20T15:35:50;7.07;;;6.07;;
15858;SDS011;8029;52.202;7.308;2022-11-20T15:38:16;7.93;;;7.13;;
15858;SDS011;8029;52.202;7.308;2022-11-20T15:40:42;8.97;;;8.07;;
15858;SDS011;8029;52.202;7.308;2022-11-20T15:43:08;7.57;;;6.53;;
15858;SDS011;8029;52.202;7.308;2022-11-20T15:45:44;8.77;;;7.63;;
15858;SDS011;8029;52.202;7.308;2022-11-20T15:48:12;8.67;;;7.63;;
15858;SDS011;8029;52.202;7.308;2022-11-20T15:50:58;16.17;;;8.83;;
15858;SDS011;8029;52.202;7.308;2022-11-20T15:53:25;11.13;;;8.03;;
15858;SDS011;8029;52.202;7.308;2022-11-20T15:55:51;6.23;;;5.60;;
15858;SDS011;8029;52.202;7.308;2022-11-20T15:58:17;9.03;;;8.10;;
15858;SDS011;8029;52.202;7.308;2022-11-20T16:00:43;10.13;;;9.00;;
15858;SDS011;8029;52.202;7.308;2022-11-20T16:03:13;8.77;;;7.53;;
15858;SDS011;8029;52.202;7.308;2022-11-20T16:05:39;12.43;;;8.57;;
15858;SDS011;8029;52.202;7.308;2022-11-20T16:08:05;10.47;;;7.33;;
15858;SDS011;8029;52.202;7.308;2022-11-20T16:10:31;10.30;;;9.07;;
15858;SDS011;8029;52.202;7.308;2022-11-20T16:12:57;13.10;;;10.23;;
15858;SDS011;8029;52.202;7.308;2022-11-20T16:15:43;10.50;;;9.00;;
15858;SDS011;8029;52.202;7.308;2022-11-20T16:18:10;10.17;;;8.67;;
15858;SDS011;8029;52.202;7.308;2022-11-20T16:20:37;12.40;;;9.97;;
15858;SDS011;8029;52.202;7.308;2022-11-20T16:23:03;13.07;;;9.40;;
15858;SDS011;8029;52.202;7.308;2022-11-20T16:25:29;11.97;;;8.77;;
15858;SDS011;8029;52.202;7.308;2022-11-20T16:27:55;11.20;;;10.00;;
15858;SDS011;8029;52.202;7.308;2022-11-20T16:30:21;15.63;;;10.80;;
15858;SDS011;8029;52.202;7.308;2022-11-20T16:32:47;10.13;;;8.70;;
15858;SDS011;8029;52.202;7.308;2022-11-20T16:35:13;17.67;;;11.83;;
15858;SDS011;8029;52.202;7.308;2022-11-20T16:37:39;11.20;;;9.83;;
15858;SDS011;8029;52.202;7.308;2022-11-20T16:40:06;12.00;;;10.70;;
15858;SDS011;8029;52.202;7.308;2022-11-20T16:42:33;13.33;;;10.40;;